Aldrich, Minnesota
Current Conditions -  °F | °C
As of 6:13 PM on Monday 24 Nov 2014 (Local Time) from KSAZ Reporting Station
Light Snow Light Snow  
Wind Chill: -5°   Ceiling: 1800
Heat Index: 10°   Visibility: 10mi
Dew Point:   Wind: 13mph
Humidity: 85%   Direction: 330°NNW
Pressure: 29.81"   Gusts: 22mph
Location:  46.38°N, 94.94°W
Report Text: KSAZ 250013Z AUTO 33011G19KT 10SM -SN OVC018 M12/M14 A2981 RMK AO2
Loading
Personal Weather Stations






























Interactive Weather Map New forecast layout! Learn more

10-Day Weather Forecast

Advertisements
Track Severe Weather on mobile